sensor_id;sensor_type;location;lat;lon;timestamp;pressure;altitude;pressure_sealevel;temperature;humidity
76229;BME280;65021;53.174;18.160;2022-12-07T00:01:44;100504.17;;;2.52;86.68
76229;BME280;65021;53.174;18.160;2022-12-07T00:04:14;100502.28;;;2.54;86.73
76229;BME280;65021;53.174;18.160;2022-12-07T00:06:43;100500.67;;;2.52;86.73
76229;BME280;65021;53.174;18.160;2022-12-07T00:09:11;100502.08;;;2.48;86.85
76229;BME280;65021;53.174;18.160;2022-12-07T00:11:38;100498.70;;;2.42;87.06
76229;BME280;65021;53.174;18.160;2022-12-07T00:14:07;100495.06;;;2.39;87.11
76229;BME280;65021;53.174;18.160;2022-12-07T00:16:36;100493.96;;;2.41;86.98
76229;BME280;65021;53.174;18.160;2022-12-07T00:19:03;100496.91;;;2.45;86.90
76229;BME280;65021;53.174;18.160;2022-12-07T00:21:32;100500.02;;;2.49;86.84
76229;BME280;65021;53.174;18.160;2022-12-07T00:24:00;100500.64;;;2.52;86.74
76229;BME280;65021;53.174;18.160;2022-12-07T00:26:35;100495.64;;;2.51;86.82
76229;BME280;65021;53.174;18.160;2022-12-07T00:29:16;100491.41;;;2.49;86.88
76229;BME280;65021;53.174;18.160;2022-12-07T00:31:43;100492.50;;;2.45;86.89
76229;BME280;65021;53.174;18.160;2022-12-07T00:34:18;100492.05;;;2.43;87.06
76229;BME280;65021;53.174;18.160;2022-12-07T00:36:46;100485.45;;;2.42;87.09
76229;BME280;65021;53.174;18.160;2022-12-07T00:39:12;100491.16;;;2.43;87.02
76229;BME280;65021;53.174;18.160;2022-12-07T00:41:40;100491.87;;;2.44;87.01
76229;BME280;65021;53.174;18.160;2022-12-07T00:44:06;100486.55;;;2.44;87.00
76229;BME280;65021;53.174;18.160;2022-12-07T00:46:33;100484.21;;;2.47;86.91
76229;BME280;65021;53.174;18.160;2022-12-07T00:49:00;100488.71;;;2.50;86.85
76229;BME280;65021;53.174;18.160;2022-12-07T00:51:26;100483.05;;;2.49;86.85
76229;BME280;65021;53.174;18.160;2022-12-07T00:53:53;100486.72;;;2.49;86.79
76229;BME280;65021;53.174;18.160;2022-12-07T00:56:25;100481.97;;;2.46;86.95
76229;BME280;65021;53.174;18.160;2022-12-07T00:58:57;100481.40;;;2.43;87.09
76229;BME280;65021;53.174;18.160;2022-12-07T01:01:26;100479.85;;;2.40;87.05
76229;BME280;65021;53.174;18.160;2022-12-07T01:03:53;100476.89;;;2.37;86.96
76229;BME280;65021;53.174;18.160;2022-12-07T01:06:21;100476.05;;;2.37;86.97
76229;BME280;65021;53.174;18.160;2022-12-07T01:08:48;100474.48;;;2.38;86.99
76229;BME280;65021;53.174;18.160;2022-12-07T01:11:21;100471.60;;;2.40;86.89
76229;BME280;65021;53.174;18.160;2022-12-07T01:13:53;100473.84;;;2.42;86.90
76229;BME280;65021;53.174;18.160;2022-12-07T01:16:21;100468.76;;;2.46;86.94
76229;BME280;65021;53.174;18.160;2022-12-07T01:18:50;100468.42;;;2.44;86.86
76229;BME280;65021;53.174;18.160;2022-12-07T01:21:22;100462.17;;;2.40;86.81
76229;BME280;65021;53.174;18.160;2022-12-07T01:23:50;100462.63;;;2.36;86.93
76229;BME280;65021;53.174;18.160;2022-12-07T01:26:19;100461.92;;;2.31;86.97
76229;BME280;65021;53.174;18.160;2022-12-07T01:28:46;100461.84;;;2.27;86.87
76229;BME280;65021;53.174;18.160;2022-12-07T01:31:15;100456.48;;;2.26;87.06
76229;BME280;65021;53.174;18.160;2022-12-07T01:33:48;100456.08;;;2.29;86.93
76229;BME280;65021;53.174;18.160;2022-12-07T01:36:23;100454.00;;;2.33;87.00
76229;BME280;65021;53.174;18.160;2022-12-07T01:38:54;100455.20;;;2.37;86.88
76229;BME280;65021;53.174;18.160;2022-12-07T01:41:24;100455.73;;;2.41;86.93
76229;BME280;65021;53.174;18.160;2022-12-07T01:44:27;100448.85;;;2.44;86.88
76229;BME280;65021;53.174;18.160;2022-12-07T01:47:01;100446.31;;;2.45;86.94
76229;BME280;65021;53.174;18.160;2022-12-07T01:49:41;100439.38;;;2.43;86.93
76229;BME280;65021;53.174;18.160;2022-12-07T01:52:28;100439.02;;;2.39;86.95
76229;BME280;65021;53.174;18.160;2022-12-07T01:55:03;100433.54;;;2.32;87.00
76229;BME280;65021;53.174;18.160;2022-12-07T01:57:32;100426.41;;;2.29;86.95
76229;BME280;65021;53.174;18.160;2022-12-07T02:00:01;100426.09;;;2.29;87.00
76229;BME280;65021;53.174;18.160;2022-12-07T02:02:32;100420.48;;;2.28;87.02
76229;BME280;65021;53.174;18.160;2022-12-07T02:05:01;100419.02;;;2.31;86.94
76229;BME280;65021;53.174;18.160;2022-12-07T02:07:29;100414.95;;;2.30;86.96
76229;BME280;65021;53.174;18.160;2022-12-07T02:09:57;100412.66;;;2.27;86.99
76229;BME280;65021;53.174;18.160;2022-12-07T02:12:24;100410.95;;;2.24;87.12
76229;BME280;65021;53.174;18.160;2022-12-07T02:14:52;100410.72;;;2.22;87.16
76229;BME280;65021;53.174;18.160;2022-12-07T02:17:43;100409.02;;;2.18;87.24
76229;BME280;65021;53.174;18.160;2022-12-07T02:25:51;100406.51;;;2.21;87.18
76229;BME280;65021;53.174;18.160;2022-12-07T02:28:31;100404.66;;;2.24;87.21
76229;BME280;65021;53.174;18.160;2022-12-07T02:31:06;100407.92;;;2.25;87.19
76229;BME280;65021;53.174;18.160;2022-12-07T02:33:37;100406.35;;;2.26;87.32
76229;BME280;65021;53.174;18.160;2022-12-07T02:36:15;100406.98;;;2.23;87.30
76229;BME280;65021;53.174;18.160;2022-12-07T02:41:27;100401.73;;;2.20;87.38
76229;BME280;65021;53.174;18.160;2022-12-07T02:43:58;100398.37;;;2.23;87.41
76229;BME280;65021;53.174;18.160;2022-12-07T02:46:32;100396.84;;;2.27;87.45
76229;BME280;65021;53.174;18.160;2022-12-07T02:49:00;100396.30;;;2.29;87.42
76229;BME280;65021;53.174;18.160;2022-12-07T02:51:31;100396.50;;;2.34;87.44
76229;BME280;65021;53.174;18.160;2022-12-07T02:53:59;100394.08;;;2.38;87.30
76229;BME280;65021;53.174;18.160;2022-12-07T03:02:50;100385.77;;;2.36;87.46
76229;BME280;65021;53.174;18.160;2022-12-07T03:18:49;100384.16;;;2.45;87.61
76229;BME280;65021;53.174;18.160;2022-12-07T03:21:21;100388.59;;;2.45;87.79
76229;BME280;65021;53.174;18.160;2022-12-07T03:23:54;100384.55;;;2.47;87.70
76229;BME280;65021;53.174;18.160;2022-12-07T03:26:30;100384.25;;;2.53;87.68
76229;BME280;65021;53.174;18.160;2022-12-07T03:29:02;100381.98;;;2.58;87.54
76229;BME280;65021;53.174;18.160;2022-12-07T03:31:33;100384.16;;;2.62;87.54
76229;BME280;65021;53.174;18.160;2022-12-07T03:37:14;100380.89;;;2.67;87.61
76229;BME280;65021;53.174;18.160;2022-12-07T03:39:58;100372.69;;;2.65;87.68
76229;BME280;65021;53.174;18.160;2022-12-07T03:42:29;100372.51;;;2.62;87.78
76229;BME280;65021;53.174;18.160;2022-12-07T03:44:56;100370.14;;;2.60;87.76
76229;BME280;65021;53.174;18.160;2022-12-07T03:47:33;100369.67;;;2.62;87.75
76229;BME280;65021;53.174;18.160;2022-12-07T03:50:14;100370.37;;;2.65;87.68
76229;BME280;65021;53.174;18.160;2022-12-07T03:52:47;100367.72;;;2.67;87.56
76229;BME280;65021;53.174;18.160;2022-12-07T03:57:48;100365.71;;;2.67;87.55
76229;BME280;65021;53.174;18.160;2022-12-07T04:00:18;100361.41;;;2.65;87.62
76229;BME280;65021;53.174;18.160;2022-12-07T04:02:44;100358.44;;;2.62;87.55
76229;BME280;65021;53.174;18.160;2022-12-07T04:05:11;100355.20;;;2.62;87.51
76229;BME280;65021;53.174;18.160;2022-12-07T04:07:38;100352.13;;;2.63;87.47
76229;BME280;65021;53.174;18.160;2022-12-07T04:10:05;100352.63;;;2.63;87.45
76229;BME280;65021;53.174;18.160;2022-12-07T04:12:32;100349.16;;;2.63;87.44
76229;BME280;65021;53.174;18.160;2022-12-07T04:14:59;100348.11;;;2.63;87.34
76229;BME280;65021;53.174;18.160;2022-12-07T04:17:25;100345.70;;;2.61;87.40
76229;BME280;65021;53.174;18.160;2022-12-07T04:19:52;100346.62;;;2.57;87.51
76229;BME280;65021;53.174;18.160;2022-12-07T04:22:18;100346.15;;;2.55;87.51
76229;BME280;65021;53.174;18.160;2022-12-07T04:24:45;100348.30;;;2.55;87.39
76229;BME280;65021;53.174;18.160;2022-12-07T04:27:12;100346.73;;;2.56;87.36
76229;BME280;65021;53.174;18.160;2022-12-07T04:29:38;100351.88;;;2.56;87.25
76229;BME280;65021;53.174;18.160;2022-12-07T04:32:05;100351.80;;;2.56;87.30
76229;BME280;65021;53.174;18.160;2022-12-07T04:34:32;100350.79;;;2.56;87.30
76229;BME280;65021;53.174;18.160;2022-12-07T04:36:58;100349.08;;;2.52;87.42
76229;BME280;65021;53.174;18.160;2022-12-07T04:39:27;100346.69;;;2.47;87.30
76229;BME280;65021;53.174;18.160;2022-12-07T04:41:55;100343.81;;;2.45;87.28
76229;BME280;65021;53.174;18.160;2022-12-07T04:44:23;100339.27;;;2.45;87.27
76229;BME280;65021;53.174;18.160;2022-12-07T04:46:51;100335.71;;;2.45;87.25
76229;BME280;65021;53.174;18.160;2022-12-07T04:49:18;100335.59;;;2.46;87.11
76229;BME280;65021;53.174;18.160;2022-12-07T04:51:45;100335.92;;;2.46;87.14
76229;BME280;65021;53.174;18.160;2022-12-07T04:54:13;100342.46;;;2.44;87.11
76229;BME280;65021;53.174;18.160;2022-12-07T04:56:40;100340.98;;;2.43;87.21
76229;BME280;65021;53.174;18.160;2022-12-07T04:59:07;100339.37;;;2.40;87.19
76229;BME280;65021;53.174;18.160;2022-12-07T05:01:34;100333.77;;;2.42;87.24
76229;BME280;65021;53.174;18.160;2022-12-07T05:04:01;100332.20;;;2.46;87.09
76229;BME280;65021;53.174;18.160;2022-12-07T05:06:31;100326.95;;;2.47;86.99
76229;BME280;65021;53.174;18.160;2022-12-07T05:08:57;100331.06;;;2.46;87.11
76229;BME280;65021;53.174;18.160;2022-12-07T05:11:24;100327.30;;;2.43;87.02
76229;BME280;65021;53.174;18.160;2022-12-07T05:14:18;100327.73;;;2.37;87.17
76229;BME280;65021;53.174;18.160;2022-12-07T05:16:48;100327.48;;;2.32;87.16
76229;BME280;65021;53.174;18.160;2022-12-07T05:19:16;100326.70;;;2.28;87.06
76229;BME280;65021;53.174;18.160;2022-12-07T05:21:43;100320.77;;;2.30;86.98
76229;BME280;65021;53.174;18.160;2022-12-07T05:24:12;100320.81;;;2.33;86.94
76229;BME280;65021;53.174;18.160;2022-12-07T05:26:39;100320.46;;;2.31;86.85
76229;BME280;65021;53.174;18.160;2022-12-07T05:29:07;100322.18;;;2.29;86.66
76229;BME280;65021;53.174;18.160;2022-12-07T05:31:34;100323.69;;;2.24;86.63
76229;BME280;65021;53.174;18.160;2022-12-07T05:34:00;100323.09;;;2.19;86.73
76229;BME280;65021;53.174;18.160;2022-12-07T05:36:27;100323.73;;;2.14;86.79
76229;BME280;65021;53.174;18.160;2022-12-07T05:38:55;100321.45;;;2.10;86.87
76229;BME280;65021;53.174;18.160;2022-12-07T05:41:21;100318.89;;;2.11;86.70
76229;BME280;65021;53.174;18.160;2022-12-07T05:44:06;100322.52;;;2.11;86.72
76229;BME280;65021;53.174;18.160;2022-12-07T05:46:33;100328.15;;;2.08;86.38
76229;BME280;65021;53.174;18.160;2022-12-07T05:49:00;100329.23;;;2.04;86.67
76229;BME280;65021;53.174;18.160;2022-12-07T05:51:27;100335.98;;;1.97;86.57
76229;BME280;65021;53.174;18.160;2022-12-07T05:53:54;100331.35;;;1.92;86.72
76229;BME280;65021;53.174;18.160;2022-12-07T05:56:20;100331.36;;;1.88;86.63
76229;BME280;65021;53.174;18.160;2022-12-07T05:58:47;100341.41;;;1.87;86.67
76229;BME280;65021;53.174;18.160;2022-12-07T06:01:32;100340.54;;;1.87;86.70
76229;BME280;65021;53.174;18.160;2022-12-07T06:03:59;100339.48;;;1.87;86.59
76229;BME280;65021;53.174;18.160;2022-12-07T06:06:25;100336.89;;;1.85;86.50
76229;BME280;65021;53.174;18.160;2022-12-07T06:08:52;100340.47;;;1.77;86.28
76229;BME280;65021;53.174;18.160;2022-12-07T06:11:18;100340.45;;;1.69;86.28
76229;BME280;65021;53.174;18.160;2022-12-07T06:14:03;100341.67;;;1.60;86.32
76229;BME280;65021;53.174;18.160;2022-12-07T06:16:30;100337.36;;;1.52;86.40
76229;BME280;65021;53.174;18.160;2022-12-07T06:18:57;100337.52;;;1.51;86.47
76229;BME280;65021;53.174;18.160;2022-12-07T06:21:23;100338.24;;;1.51;86.55
76229;BME280;65021;53.174;18.160;2022-12-07T06:23:52;100340.12;;;1.49;86.35
76229;BME280;65021;53.174;18.160;2022-12-07T06:26:19;100340.11;;;1.48;86.37
76229;BME280;65021;53.174;18.160;2022-12-07T06:28:45;100338.83;;;1.45;86.41
76229;BME280;65021;53.174;18.160;2022-12-07T06:31:12;100340.56;;;1.42;86.60
76229;BME280;65021;53.174;18.160;2022-12-07T06:33:39;100343.67;;;1.35;86.50
76229;BME280;65021;53.174;18.160;2022-12-07T06:36:06;100346.14;;;1.30;86.61
76229;BME280;65021;53.174;18.160;2022-12-07T06:38:32;100345.78;;;1.27;86.58
76229;BME280;65021;53.174;18.160;2022-12-07T06:40:59;100345.52;;;1.25;86.53
76229;BME280;65021;53.174;18.160;2022-12-07T06:43:25;100346.02;;;1.21;86.42
76229;BME280;65021;53.174;18.160;2022-12-07T06:45:52;100348.87;;;1.14;86.47
76229;BME280;65021;53.174;18.160;2022-12-07T06:48:18;100347.92;;;1.08;86.64
76229;BME280;65021;53.174;18.160;2022-12-07T06:50:46;100347.15;;;1.02;86.62
76229;BME280;65021;53.174;18.160;2022-12-07T06:53:13;100345.37;;;0.96;86.59
76229;BME280;65021;53.174;18.160;2022-12-07T06:55:41;100345.59;;;0.95;86.59
76229;BME280;65021;53.174;18.160;2022-12-07T06:58:08;100341.70;;;0.89;86.58
76229;BME280;65021;53.174;18.160;2022-12-07T07:00:34;100343.52;;;0.85;86.63
76229;BME280;65021;53.174;18.160;2022-12-07T07:03:01;100340.90;;;0.81;86.70
76229;BME280;65021;53.174;18.160;2022-12-07T07:05:28;100338.83;;;0.76;86.53
76229;BME280;65021;53.174;18.160;2022-12-07T07:07:54;100340.39;;;0.73;86.70
76229;BME280;65021;53.174;18.160;2022-12-07T07:10:21;100338.34;;;0.70;86.74
76229;BME280;65021;53.174;18.160;2022-12-07T07:12:47;100336.23;;;0.73;86.84
76229;BME280;65021;53.174;18.160;2022-12-07T07:15:14;100335.97;;;0.76;86.77
76229;BME280;65021;53.174;18.160;2022-12-07T07:17:40;100341.27;;;0.80;86.69
76229;BME280;65021;53.174;18.160;2022-12-07T07:20:07;100343.76;;;0.80;86.62
76229;BME280;65021;53.174;18.160;2022-12-07T07:22:34;100340.86;;;0.80;86.65
76229;BME280;65021;53.174;18.160;2022-12-07T07:25:00;100342.05;;;0.78;86.68
76229;BME280;65021;53.174;18.160;2022-12-07T07:27:27;100335.42;;;0.77;86.80
76229;BME280;65021;53.174;18.160;2022-12-07T07:29:53;100336.27;;;0.78;86.78
76229;BME280;65021;53.174;18.160;2022-12-07T07:32:20;100333.80;;;0.83;86.80
76229;BME280;65021;53.174;18.160;2022-12-07T07:34:48;100336.56;;;0.88;86.67
76229;BME280;65021;53.174;18.160;2022-12-07T07:37:14;100332.95;;;0.92;86.61
76229;BME280;65021;53.174;18.160;2022-12-07T07:39:41;100339.82;;;0.98;86.47
76229;BME280;65021;53.174;18.160;2022-12-07T07:42:07;100333.38;;;1.02;86.38
76229;BME280;65021;53.174;18.160;2022-12-07T07:44:34;100333.73;;;1.03;86.50
76229;BME280;65021;53.174;18.160;2022-12-07T07:47:02;100328.95;;;1.05;86.50
76229;BME280;65021;53.174;18.160;2022-12-07T07:49:28;100329.85;;;1.08;86.39
76229;BME280;65021;53.174;18.160;2022-12-07T07:51:55;100331.09;;;1.13;86.20
76229;BME280;65021;53.174;18.160;2022-12-07T07:54:21;100327.58;;;1.21;86.22
76229;BME280;65021;53.174;18.160;2022-12-07T07:56:48;100325.39;;;1.26;86.06
76229;BME280;65021;53.174;18.160;2022-12-07T07:59:15;100324.39;;;1.31;86.11
76229;BME280;65021;53.174;18.160;2022-12-07T08:01:42;100329.30;;;1.34;86.05
76229;BME280;65021;53.174;18.160;2022-12-07T08:04:08;100330.00;;;1.32;86.05
76229;BME280;65021;53.174;18.160;2022-12-07T08:06:35;100325.71;;;1.28;86.00
76229;BME280;65021;53.174;18.160;2022-12-07T08:09:02;100328.60;;;1.27;85.98
76229;BME280;65021;53.174;18.160;2022-12-07T08:11:29;100326.43;;;1.30;86.15
76229;BME280;65021;53.174;18.160;2022-12-07T08:13:56;100327.24;;;1.35;85.93
76229;BME280;65021;53.174;18.160;2022-12-07T08:16:22;100329.32;;;1.41;85.96
76229;BME280;65021;53.174;18.160;2022-12-07T08:18:49;100328.00;;;1.46;85.79
76229;BME280;65021;53.174;18.160;2022-12-07T08:21:15;100330.56;;;1.49;85.84
76229;BME280;65021;53.174;18.160;2022-12-07T08:23:43;100332.30;;;1.49;85.94
76229;BME280;65021;53.174;18.160;2022-12-07T08:26:13;100330.06;;;1.45;85.81
76229;BME280;65021;53.174;18.160;2022-12-07T08:28:41;100324.07;;;1.44;85.74
76229;BME280;65021;53.174;18.160;2022-12-07T08:31:11;100319.85;;;1.47;85.68
76229;BME280;65021;53.174;18.160;2022-12-07T08:33:39;100317.96;;;1.50;85.64
76229;BME280;65021;53.174;18.160;2022-12-07T08:36:08;100317.73;;;1.53;85.50
76229;BME280;65021;53.174;18.160;2022-12-07T08:38:35;100318.20;;;1.53;85.59
76229;BME280;65021;53.174;18.160;2022-12-07T08:41:02;100315.98;;;1.55;85.64
76229;BME280;65021;53.174;18.160;2022-12-07T08:43:29;100318.77;;;1.55;85.75
76229;BME280;65021;53.174;18.160;2022-12-07T08:46:09;100318.48;;;1.57;85.63
76229;BME280;65021;53.174;18.160;2022-12-07T08:48:44;100313.91;;;1.65;85.70
76229;BME280;65021;53.174;18.160;2022-12-07T08:51:12;100313.25;;;1.73;85.78
76229;BME280;65021;53.174;18.160;2022-12-07T08:53:39;100314.40;;;1.74;85.68
76229;BME280;65021;53.174;18.160;2022-12-07T08:56:07;100313.77;;;1.73;85.68
76229;BME280;65021;53.174;18.160;2022-12-07T08:58:34;100310.03;;;1.70;85.70
76229;BME280;65021;53.174;18.160;2022-12-07T09:01:02;100308.79;;;1.68;85.87
76229;BME280;65021;53.174;18.160;2022-12-07T09:03:29;100303.67;;;1.64;85.86
76229;BME280;65021;53.174;18.160;2022-12-07T09:05:56;100300.67;;;1.63;85.75
76229;BME280;65021;53.174;18.160;2022-12-07T09:08:28;100295.48;;;1.68;85.76
76229;BME280;65021;53.174;18.160;2022-12-07T09:10:56;100294.14;;;1.77;85.86
76229;BME280;65021;53.174;18.160;2022-12-07T09:13:22;100295.77;;;1.85;85.78
76229;BME280;65021;53.174;18.160;2022-12-07T09:15:49;100294.56;;;1.90;85.82
76229;BME280;65021;53.174;18.160;2022-12-07T09:18:15;100289.00;;;1.92;85.77
76229;BME280;65021;53.174;18.160;2022-12-07T09:20:42;100285.45;;;1.94;85.74
76229;BME280;65021;53.174;18.160;2022-12-07T09:23:08;100281.73;;;1.97;85.85
76229;BME280;65021;53.174;18.160;2022-12-07T09:25:35;100277.92;;;2.01;85.92
76229;BME280;65021;53.174;18.160;2022-12-07T09:28:02;100275.02;;;2.11;85.96
76229;BME280;65021;53.174;18.160;2022-12-07T09:30:28;100272.33;;;2.18;85.80
76229;BME280;65021;53.174;18.160;2022-12-07T09:32:56;100266.55;;;2.24;85.72
76229;BME280;65021;53.174;18.160;2022-12-07T09:35:23;100264.50;;;2.25;85.65
76229;BME280;65021;53.174;18.160;2022-12-07T09:37:50;100268.44;;;2.27;85.70
76229;BME280;65021;53.174;18.160;2022-12-07T09:40:19;100263.42;;;2.30;85.67
76229;BME280;65021;53.174;18.160;2022-12-07T09:42:51;100255.48;;;2.29;85.53
76229;BME280;65021;53.174;18.160;2022-12-07T09:45:22;100257.23;;;2.31;85.24
76229;BME280;65021;53.174;18.160;2022-12-07T09:47:49;100252.35;;;2.37;85.27
76229;BME280;65021;53.174;18.160;2022-12-07T09:50:21;100253.27;;;2.41;85.27
76229;BME280;65021;53.174;18.160;2022-12-07T09:52:50;100248.55;;;2.46;85.12
76229;BME280;65021;53.174;18.160;2022-12-07T09:55:27;100242.98;;;2.48;85.05
76229;BME280;65021;53.174;18.160;2022-12-07T09:57:54;100244.89;;;2.52;85.15
76229;BME280;65021;53.174;18.160;2022-12-07T10:00:22;100234.89;;;2.54;85.16
76229;BME280;65021;53.174;18.160;2022-12-07T10:02:55;100233.08;;;2.57;85.22
76229;BME280;65021;53.174;18.160;2022-12-07T10:05:41;100226.84;;;2.58;84.94
76229;BME280;65021;53.174;18.160;2022-12-07T10:08:11;100228.66;;;2.63;84.96
76229;BME280;65021;53.174;18.160;2022-12-07T10:10:38;100222.55;;;2.72;84.97
76229;BME280;65021;53.174;18.160;2022-12-07T10:13:11;100227.83;;;2.71;84.32
76229;BME280;65021;53.174;18.160;2022-12-07T10:15:54;100222.41;;;2.64;84.40
76229;BME280;65021;53.174;18.160;2022-12-07T10:23:30;100222.13;;;2.64;84.98
76229;BME280;65021;53.174;18.160;2022-12-07T10:25:56;100216.73;;;2.69;84.86
76229;BME280;65021;53.174;18.160;2022-12-07T10:28:23;100212.67;;;2.75;84.76
76229;BME280;65021;53.174;18.160;2022-12-07T10:31:16;100209.48;;;2.75;84.89
76229;BME280;65021;53.174;18.160;2022-12-07T10:33:54;100207.79;;;2.69;84.57
76229;BME280;65021;53.174;18.160;2022-12-07T10:41:35;100197.14;;;2.68;84.67
76229;BME280;65021;53.174;18.160;2022-12-07T10:44:02;100190.81;;;2.71;84.68
76229;BME280;65021;53.174;18.160;2022-12-07T10:46:37;100187.02;;;2.76;84.59
76229;BME280;65021;53.174;18.160;2022-12-07T11:00:40;100179.97;;;2.70;84.64
76229;BME280;65021;53.174;18.160;2022-12-07T11:06:36;100170.58;;;2.52;84.47
76229;BME280;65021;53.174;18.160;2022-12-07T11:14:40;100165.48;;;2.57;84.57
76229;BME280;65021;53.174;18.160;2022-12-07T11:17:22;100164.08;;;2.56;84.60
76229;BME280;65021;53.174;18.160;2022-12-07T11:25:22;100149.30;;;2.43;84.74
76229;BME280;65021;53.174;18.160;2022-12-07T11:30:38;100146.36;;;2.54;84.91
76229;BME280;65021;53.174;18.160;2022-12-07T11:33:37;100141.08;;;2.62;84.94
76229;BME280;65021;53.174;18.160;2022-12-07T11:38:55;100129.35;;;2.61;84.93
76229;BME280;65021;53.174;18.160;2022-12-07T11:41:34;100124.55;;;2.55;85.01
76229;BME280;65021;53.174;18.160;2022-12-07T11:46:54;100128.88;;;2.46;84.69
76229;BME280;65021;53.174;18.160;2022-12-07T11:55:17;100120.11;;;2.53;84.60
76229;BME280;65021;53.174;18.160;2022-12-07T11:57:48;100114.84;;;2.51;84.65
76229;BME280;65021;53.174;18.160;2022-12-07T12:00:18;100111.33;;;2.44;84.80
76229;BME280;65021;53.174;18.160;2022-12-07T12:02:54;100111.16;;;2.37;84.94
76229;BME280;65021;53.174;18.160;2022-12-07T12:05:24;100107.98;;;2.33;84.99
76229;BME280;65021;53.174;18.160;2022-12-07T12:08:14;100108.94;;;2.30;84.96
76229;BME280;65021;53.174;18.160;2022-12-07T12:16:57;100104.73;;;2.33;85.08
76229;BME280;65021;53.174;18.160;2022-12-07T12:19:33;100104.27;;;2.36;85.05
76229;BME280;65021;53.174;18.160;2022-12-07T12:22:15;100094.73;;;2.36;85.04
76229;BME280;65021;53.174;18.160;2022-12-07T12:24:45;100091.33;;;2.36;85.07
76229;BME280;65021;53.174;18.160;2022-12-07T12:27:23;100090.06;;;2.36;85.00
76229;BME280;65021;53.174;18.160;2022-12-07T12:29:59;100085.23;;;2.41;84.90
76229;BME280;65021;53.174;18.160;2022-12-07T12:32:38;100081.23;;;2.46;84.88
76229;BME280;65021;53.174;18.160;2022-12-07T12:35:29;100080.82;;;2.47;84.66
76229;BME280;65021;53.174;18.160;2022-12-07T12:40:48;100081.91;;;2.35;84.88
76229;BME280;65021;53.174;18.160;2022-12-07T12:51:51;100076.25;;;2.23;85.05
76229;BME280;65021;53.174;18.160;2022-12-07T12:56:52;100072.88;;;2.28;85.03
76229;BME280;65021;53.174;18.160;2022-12-07T13:01:50;100065.95;;;2.28;84.92
76229;BME280;65021;53.174;18.160;2022-12-07T13:04:27;100066.29;;;2.22;85.10
76229;BME280;65021;53.174;18.160;2022-12-07T13:06:54;100064.89;;;2.18;85.21
76229;BME280;65021;53.174;18.160;2022-12-07T13:09:24;100060.38;;;2.17;85.24
76229;BME280;65021;53.174;18.160;2022-12-07T13:11:59;100064.27;;;2.17;85.17
76229;BME280;65021;53.174;18.160;2022-12-07T13:27:28;100061.03;;;2.04;85.30
76229;BME280;65021;53.174;18.160;2022-12-07T13:29:57;100061.58;;;2.00;85.28
76229;BME280;65021;53.174;18.160;2022-12-07T13:32:26;100065.24;;;1.94;85.26
76229;BME280;65021;53.174;18.160;2022-12-07T13:34:53;100064.95;;;1.91;85.29
76229;BME280;65021;53.174;18.160;2022-12-07T13:39:54;100066.85;;;1.94;85.28
76229;BME280;65021;53.174;18.160;2022-12-07T13:42:25;100067.48;;;1.98;85.21
76229;BME280;65021;53.174;18.160;2022-12-07T13:44:53;100064.02;;;1.98;85.20
76229;BME280;65021;53.174;18.160;2022-12-07T13:47:34;100064.52;;;1.95;85.19
76229;BME280;65021;53.174;18.160;2022-12-07T13:50:23;100064.14;;;1.90;85.31
76229;BME280;65021;53.174;18.160;2022-12-07T13:52:50;100065.18;;;1.87;85.40
76229;BME280;65021;53.174;18.160;2022-12-07T13:55:20;100060.37;;;1.82;85.41
76229;BME280;65021;53.174;18.160;2022-12-07T13:57:50;100064.38;;;1.82;85.33
76229;BME280;65021;53.174;18.160;2022-12-07T14:00:20;100065.80;;;1.85;85.35
76229;BME280;65021;53.174;18.160;2022-12-07T14:02:58;100063.20;;;1.85;85.22
76229;BME280;65021;53.174;18.160;2022-12-07T14:05:32;100064.50;;;1.85;85.41
76229;BME280;65021;53.174;18.160;2022-12-07T14:10:30;100067.43;;;1.77;85.59
76229;BME280;65021;53.174;18.160;2022-12-07T14:12:58;100066.99;;;1.71;85.50
76229;BME280;65021;53.174;18.160;2022-12-07T14:15:29;100068.20;;;1.66;85.55
76229;BME280;65021;53.174;18.160;2022-12-07T14:17:58;100069.29;;;1.65;85.61
76229;BME280;65021;53.174;18.160;2022-12-07T14:20:36;100071.77;;;1.65;85.57
76229;BME280;65021;53.174;18.160;2022-12-07T14:23:05;100072.92;;;1.66;85.67
76229;BME280;65021;53.174;18.160;2022-12-07T14:25:48;100069.88;;;1.63;85.54
76229;BME280;65021;53.174;18.160;2022-12-07T14:30:56;100076.42;;;1.55;85.67
76229;BME280;65021;53.174;18.160;2022-12-07T14:33:23;100076.11;;;1.51;85.81
76229;BME280;65021;53.174;18.160;2022-12-07T14:35:50;100074.54;;;1.46;85.69
76229;BME280;65021;53.174;18.160;2022-12-07T14:38:21;100077.81;;;1.46;85.79
76229;BME280;65021;53.174;18.160;2022-12-07T14:40:48;100077.98;;;1.48;85.71
76229;BME280;65021;53.174;18.160;2022-12-07T14:43:16;100080.44;;;1.48;85.72
76229;BME280;65021;53.174;18.160;2022-12-07T14:45:44;100081.36;;;1.48;85.83
76229;BME280;65021;53.174;18.160;2022-12-07T14:48:11;100077.94;;;1.47;85.79
76229;BME280;65021;53.174;18.160;2022-12-07T14:50:41;100077.97;;;1.43;85.83
76229;BME280;65021;53.174;18.160;2022-12-07T14:53:18;100081.45;;;1.39;85.85
76229;BME280;65021;53.174;18.160;2022-12-07T14:55:48;100079.08;;;1.36;85.95
76229;BME280;65021;53.174;18.160;2022-12-07T14:58:16;100075.04;;;1.36;86.11
76229;BME280;65021;53.174;18.160;2022-12-07T15:00:44;100077.02;;;1.39;85.95
76229;BME280;65021;53.174;18.160;2022-12-07T15:03:11;100076.20;;;1.44;85.87
76229;BME280;65021;53.174;18.160;2022-12-07T15:05:39;100074.02;;;1.46;85.97
76229;BME280;65021;53.174;18.160;2022-12-07T15:08:09;100072.55;;;1.45;86.05
76229;BME280;65021;53.174;18.160;2022-12-07T15:10:36;100070.75;;;1.41;85.97
76229;BME280;65021;53.174;18.160;2022-12-07T15:13:04;100072.89;;;1.36;85.99